createdAt,value
2019-01-13T00:02:58.339Z,4.10
2019-01-13T00:06:03.668Z,4.10
2019-01-13T00:09:09.768Z,4.10
2019-01-13T00:12:14.822Z,4.20
2019-01-13T00:15:19.910Z,4.10
2019-01-13T00:18:24.976Z,4.10
2019-01-13T00:21:30.020Z,4.20
2019-01-13T00:24:35.138Z,4.20
2019-01-13T00:27:40.237Z,4.20
2019-01-13T00:30:45.191Z,4.20
2019-01-13T00:33:50.180Z,4.20
2019-01-13T00:36:55.386Z,4.20
2019-01-13T00:40:00.629Z,4.20
2019-01-13T00:43:06.217Z,4.20
2019-01-13T00:46:11.232Z,4.20
2019-01-13T00:49:16.525Z,4.20
2019-01-13T00:52:21.640Z,4.20
2019-01-13T00:55:26.561Z,4.20
2019-01-13T00:58:34.460Z,4.20
2019-01-13T01:01:39.555Z,4.20
2019-01-13T01:04:44.706Z,4.20
2019-01-13T01:07:50.771Z,4.20
2019-01-13T01:10:56.142Z,4.20
2019-01-13T01:14:01.216Z,4.20
2019-01-13T01:17:06.611Z,4.20
2019-01-13T01:20:12.911Z,4.20
2019-01-13T01:23:17.966Z,4.20
2019-01-13T01:26:23.069Z,4.10
2019-01-13T01:29:28.218Z,4.10
2019-01-13T01:32:33.285Z,4.10
2019-01-13T01:35:38.500Z,4.00
2019-01-13T01:38:43.730Z,4.00
2019-01-13T01:41:48.710Z,4.00
2019-01-13T01:44:53.741Z,3.90
2019-01-13T01:47:58.634Z,3.90
2019-01-13T01:51:03.731Z,3.90
2019-01-13T01:54:08.675Z,3.80
2019-01-13T01:57:13.674Z,3.80
2019-01-13T02:00:20.893Z,3.70
2019-01-13T02:03:25.827Z,3.70
2019-01-13T02:06:30.742Z,3.70
2019-01-13T02:09:35.712Z,3.70
2019-01-13T02:12:40.713Z,3.70
2019-01-13T02:15:46.047Z,3.70
2019-01-13T02:18:51.321Z,3.60
2019-01-13T02:21:56.272Z,3.60
2019-01-13T02:25:01.476Z,3.70
2019-01-13T02:28:06.563Z,3.60
2019-01-13T02:31:11.692Z,3.60
2019-01-13T02:34:16.591Z,3.60
2019-01-13T02:37:21.714Z,3.70
2019-01-13T02:40:26.913Z,3.70
2019-01-13T02:43:31.741Z,3.60
2019-01-13T02:46:36.806Z,3.50
2019-01-13T02:49:41.558Z,3.40
2019-01-13T02:52:46.257Z,3.30
2019-01-13T02:55:50.936Z,3.30
2019-01-13T02:58:55.941Z,3.30
2019-01-13T03:02:01.051Z,3.30
2019-01-13T03:05:07.333Z,3.20
2019-01-13T03:08:12.445Z,3.20
2019-01-13T03:11:17.749Z,3.20
2019-01-13T03:14:23.045Z,3.20
2019-01-13T03:17:28.005Z,3.10
2019-01-13T03:20:32.909Z,3.00
2019-01-13T03:23:37.787Z,3.00
2019-01-13T03:26:42.741Z,3.00
2019-01-13T03:29:47.756Z,3.00
2019-01-13T03:32:52.664Z,3.00
2019-01-13T03:35:57.841Z,3.00
2019-01-13T03:39:02.746Z,3.00
2019-01-13T03:42:07.890Z,3.00
2019-01-13T03:45:12.921Z,3.00
2019-01-13T03:48:18.013Z,3.10
2019-01-13T03:51:22.795Z,3.00
2019-01-13T03:54:27.797Z,3.00
2019-01-13T03:57:32.762Z,3.00
2019-01-13T04:00:37.919Z,2.90
2019-01-13T04:03:42.845Z,2.80
2019-01-13T04:06:47.885Z,2.80
2019-01-13T04:09:52.925Z,2.80
2019-01-13T04:12:57.995Z,2.70
2019-01-13T04:16:03.790Z,2.70
2019-01-13T04:19:08.800Z,2.80
2019-01-13T04:22:13.891Z,2.70
2019-01-13T04:25:18.892Z,2.80
2019-01-13T04:28:23.797Z,2.80
2019-01-13T04:31:28.851Z,2.80
2019-01-13T04:34:33.935Z,2.70
2019-01-13T04:37:39.026Z,2.60
2019-01-13T04:40:44.224Z,2.60
2019-01-13T04:43:49.305Z,2.60
2019-01-13T04:46:54.701Z,2.60
2019-01-13T04:49:59.718Z,2.60
2019-01-13T04:53:05.457Z,2.60
2019-01-13T04:56:10.293Z,2.60
2019-01-13T04:59:15.225Z,2.60
2019-01-13T05:02:20.237Z,2.60
2019-01-13T05:05:25.163Z,2.50
2019-01-13T05:08:30.089Z,2.50
2019-01-13T05:11:35.083Z,2.60
2019-01-13T05:14:40.186Z,2.60
2019-01-13T05:17:45.263Z,2.60
2019-01-13T05:20:50.557Z,2.70
2019-01-13T05:23:55.597Z,2.70
2019-01-13T05:27:00.513Z,2.70
2019-01-13T05:30:08.048Z,2.80
2019-01-13T05:33:13.229Z,2.80
2019-01-13T05:36:18.221Z,2.70
2019-01-13T05:39:23.375Z,2.70
2019-01-13T05:42:28.322Z,2.70
2019-01-13T05:45:33.162Z,2.70
2019-01-13T05:48:38.125Z,2.80
2019-01-13T05:51:43.125Z,2.70
2019-01-13T05:54:48.272Z,2.60
2019-01-13T05:57:53.290Z,2.60
2019-01-13T06:00:58.553Z,2.50
2019-01-13T06:04:03.491Z,2.40
2019-01-13T06:07:08.370Z,2.30
2019-01-13T06:10:32.184Z,2.20
2019-01-13T06:13:37.164Z,2.10
2019-01-13T06:16:42.056Z,2.10
2019-01-13T06:19:47.225Z,2.10
2019-01-13T06:22:52.150Z,2.00
2019-01-13T06:25:57.393Z,1.90
2019-01-13T06:29:02.474Z,1.90
2019-01-13T06:32:07.684Z,1.80
2019-01-13T06:35:12.639Z,1.70
2019-01-13T06:38:17.532Z,1.70
2019-01-13T06:41:22.586Z,1.70
2019-01-13T06:44:27.620Z,1.60
2019-01-13T06:47:32.458Z,1.60
2019-01-13T06:50:37.517Z,1.70
2019-01-13T06:53:42.603Z,1.70
2019-01-13T06:56:47.639Z,1.70
2019-01-13T06:59:52.745Z,1.70
2019-01-13T07:02:59.245Z,1.70
2019-01-13T07:06:04.513Z,1.60
2019-01-13T07:09:09.509Z,1.60
2019-01-13T07:12:17.068Z,1.70
2019-01-13T07:15:22.186Z,1.70
2019-01-13T07:18:27.428Z,1.80
2019-01-13T07:21:32.433Z,1.80
2019-01-13T07:24:57.936Z,1.80
2019-01-13T07:28:03.051Z,1.90
2019-01-13T07:31:07.976Z,2.00
2019-01-13T07:34:13.138Z,2.00
2019-01-13T07:37:18.156Z,2.00
2019-01-13T07:40:24.108Z,2.10
2019-01-13T07:43:32.326Z,2.20
2019-01-13T07:46:37.342Z,2.30
2019-01-13T07:49:42.372Z,2.30
2019-01-13T07:52:47.702Z,2.30
2019-01-13T07:55:52.901Z,2.40
2019-01-13T07:58:59.289Z,2.50
2019-01-13T08:02:04.193Z,2.60
2019-01-13T08:05:09.316Z,2.60
2019-01-13T08:08:14.494Z,2.70
2019-01-13T08:11:19.495Z,2.70
2019-01-13T08:14:24.536Z,2.80
2019-01-13T08:17:29.489Z,2.90
2019-01-13T08:20:34.669Z,2.90
2019-01-13T08:23:39.824Z,3.00
2019-01-13T08:26:44.820Z,2.90
2019-01-13T08:29:49.791Z,2.90
2019-01-13T08:32:54.656Z,3.00
2019-01-13T08:35:59.581Z,2.90
2019-01-13T08:39:07.317Z,2.90
2019-01-13T08:42:12.302Z,2.80
2019-01-13T08:45:17.987Z,2.70
2019-01-13T08:48:23.277Z,2.80
2019-01-13T08:51:28.314Z,2.80
2019-01-13T08:54:33.544Z,2.80
2019-01-13T08:57:38.671Z,3.00
2019-01-13T09:00:43.827Z,3.10
2019-01-13T09:03:49.277Z,3.30
2019-01-13T09:06:54.574Z,3.50
2019-01-13T09:09:59.746Z,3.60
2019-01-13T09:13:05.425Z,3.70
2019-01-13T09:16:12.256Z,3.80
2019-01-13T09:19:17.589Z,3.90
2019-01-13T09:22:22.584Z,3.90
2019-01-13T09:25:27.868Z,4.00
2019-01-13T09:28:32.790Z,4.00
2019-01-13T09:31:37.964Z,4.10
2019-01-13T09:34:43.064Z,4.20
2019-01-13T09:37:48.227Z,4.30
2019-01-13T09:40:53.144Z,4.40
2019-01-13T09:43:58.243Z,4.40
2019-01-13T09:47:03.149Z,4.50
2019-01-13T09:50:09.733Z,4.60
2019-01-13T09:53:14.869Z,4.80
2019-01-13T09:56:19.896Z,4.80
2019-01-13T09:59:24.837Z,5.00
2019-01-13T10:02:29.693Z,5.10
2019-01-13T10:05:34.904Z,5.20
2019-01-13T10:08:39.995Z,5.30
2019-01-13T10:11:44.971Z,5.40
2019-01-13T10:14:50.129Z,5.50
2019-01-13T10:17:55.243Z,5.60
2019-01-13T10:21:00.102Z,5.80
2019-01-13T10:24:05.124Z,5.90
2019-01-13T10:27:10.230Z,6.00
2019-01-13T10:30:17.664Z,6.10
2019-01-13T10:33:22.886Z,6.30
2019-01-13T10:36:27.936Z,6.50
2019-01-13T10:39:33.007Z,6.60
2019-01-13T10:42:38.253Z,6.90
2019-01-13T10:45:43.195Z,7.30
2019-01-13T10:48:48.218Z,7.70
2019-01-13T10:51:53.265Z,8.10
2019-01-13T10:55:00.353Z,8.60
2019-01-13T10:58:06.278Z,8.70
2019-01-13T11:01:11.244Z,8.80
2019-01-13T11:04:16.217Z,8.80
2019-01-13T11:07:21.628Z,9.00
2019-01-13T11:10:26.716Z,9.10
2019-01-13T11:13:33.895Z,9.30
2019-01-13T11:16:38.935Z,9.90
2019-01-13T11:19:43.955Z,10.40
2019-01-13T11:22:49.083Z,12.00
2019-01-13T11:25:54.022Z,14.60
2019-01-13T11:28:59.129Z,18.90
2019-01-13T11:32:03.998Z,22.00
2019-01-13T11:35:10.539Z,21.60
2019-01-13T11:38:15.455Z,20.30
2019-01-13T11:41:20.555Z,18.70
2019-01-13T11:44:25.428Z,19.10
2019-01-13T11:47:30.657Z,20.90
2019-01-13T11:50:36.403Z,23.60
2019-01-13T11:53:41.570Z,26.00
2019-01-13T11:56:46.408Z,28.50
2019-01-13T11:59:51.313Z,28.20
2019-01-13T12:02:56.413Z,28.70
2019-01-13T12:06:01.462Z,28.10
2019-01-13T12:09:11.944Z,26.60
2019-01-13T12:12:17.247Z,25.50
2019-01-13T12:15:22.592Z,24.50
2019-01-13T12:18:28.114Z,25.00
2019-01-13T12:21:33.052Z,26.80
2019-01-13T12:24:38.383Z,27.90
2019-01-13T12:27:43.659Z,29.00
2019-01-13T12:30:48.871Z,29.30
2019-01-13T12:33:53.910Z,28.70
2019-01-13T12:36:59.265Z,28.40
2019-01-13T12:40:05.202Z,27.10
2019-01-13T12:43:10.383Z,26.60
2019-01-13T12:46:15.798Z,25.40
2019-01-13T12:49:21.086Z,23.60
2019-01-13T12:52:26.155Z,21.20
2019-01-13T12:55:31.208Z,19.70
2019-01-13T12:58:36.479Z,18.50
2019-01-13T13:01:41.531Z,17.60
2019-01-13T13:04:46.593Z,16.90
2019-01-13T13:07:52.341Z,16.20
2019-01-13T13:10:58.390Z,15.60
2019-01-13T13:14:03.574Z,15.00
2019-01-13T13:17:08.750Z,14.60
2019-01-13T13:20:14.334Z,14.40
2019-01-13T13:23:19.429Z,14.10
2019-01-13T13:26:24.398Z,13.90
2019-01-13T13:29:29.742Z,13.40
2019-01-13T13:32:34.679Z,12.90
2019-01-13T13:35:40.244Z,12.50
2019-01-13T13:38:45.297Z,12.20
2019-01-13T13:41:50.723Z,12.10
2019-01-13T13:44:55.705Z,12.00
2019-01-13T13:48:01.056Z,11.90
2019-01-13T13:51:06.411Z,11.80
2019-01-13T13:54:15.102Z,11.80
2019-01-13T13:57:20.311Z,11.60
2019-01-13T14:00:34.325Z,11.60
2019-01-13T14:03:45.526Z,11.60
2019-01-13T14:06:46.118Z,11.60
2019-01-13T14:09:51.163Z,11.60
2019-01-13T14:12:56.276Z,11.60
2019-01-13T14:16:01.593Z,11.40
2019-01-13T14:19:06.752Z,11.40
2019-01-13T14:22:11.576Z,11.30
2019-01-13T14:25:16.543Z,11.30
2019-01-13T14:28:21.670Z,11.30
2019-01-13T14:31:26.892Z,11.20
2019-01-13T14:34:32.054Z,11.00
2019-01-13T14:37:37.153Z,10.90
2019-01-13T14:40:42.129Z,10.80
2019-01-13T14:43:47.127Z,10.80
2019-01-13T14:46:55.828Z,10.60
2019-01-13T14:50:00.808Z,10.50
2019-01-13T14:53:07.614Z,10.40
2019-01-13T14:56:12.382Z,10.30
2019-01-13T14:59:17.134Z,10.20
2019-01-13T15:02:21.908Z,10.10
2019-01-13T15:05:27.096Z,10.00
2019-01-13T15:08:32.275Z,10.00
2019-01-13T15:11:37.149Z,9.90
2019-01-13T15:14:42.155Z,9.90
2019-01-13T15:17:47.345Z,9.80
2019-01-13T15:20:52.455Z,9.70
2019-01-13T15:23:57.670Z,9.60
2019-01-13T15:27:02.717Z,9.50
2019-01-13T15:30:12.343Z,9.50
2019-01-13T15:33:17.937Z,9.40
2019-01-13T15:36:22.854Z,9.30
2019-01-13T15:39:27.741Z,9.30
2019-01-13T15:42:32.648Z,9.20
2019-01-13T15:45:37.868Z,9.10
2019-01-13T15:48:42.741Z,9.00
2019-01-13T15:51:49.467Z,8.90
2019-01-13T15:54:54.791Z,8.80
2019-01-13T15:57:59.874Z,8.70
2019-01-13T16:01:04.966Z,8.60
2019-01-13T16:04:14.506Z,8.50
2019-01-13T16:07:16.523Z,8.50
2019-01-13T16:10:22.913Z,8.40
2019-01-13T16:13:27.984Z,8.30
2019-01-13T16:16:33.094Z,8.20
2019-01-13T16:19:39.254Z,8.10
2019-01-13T16:22:44.456Z,8.20
2019-01-13T16:25:49.484Z,8.10
2019-01-13T16:28:54.569Z,8.10
2019-01-13T16:31:59.636Z,8.10
2019-01-13T16:35:04.884Z,8.10
2019-01-13T16:38:09.809Z,8.10
2019-01-13T16:41:15.108Z,8.00
2019-01-13T16:44:20.688Z,8.00
2019-01-13T16:47:25.957Z,8.00
2019-01-13T16:50:31.008Z,8.00
2019-01-13T16:53:36.465Z,7.90
2019-01-13T16:56:43.950Z,7.90
2019-01-13T16:59:48.837Z,7.90
2019-01-13T17:02:53.800Z,7.90
2019-01-13T17:05:58.723Z,7.80
2019-01-13T17:09:07.262Z,7.80
2019-01-13T17:12:12.370Z,7.80
2019-01-13T17:15:19.002Z,7.80
2019-01-13T17:18:24.184Z,7.80
2019-01-13T17:21:29.276Z,7.80
2019-01-13T17:24:34.448Z,7.80
2019-01-13T17:27:39.394Z,7.70
2019-01-13T17:30:44.473Z,7.60
2019-01-13T17:33:49.724Z,7.60
2019-01-13T17:36:54.683Z,7.40
2019-01-13T17:39:59.845Z,7.40
2019-01-13T17:43:04.937Z,7.40
2019-01-13T17:46:10.191Z,7.40
2019-01-13T17:49:15.213Z,7.40
2019-01-13T17:52:20.466Z,7.40
2019-01-13T17:55:27.315Z,7.40
2019-01-13T17:58:32.632Z,7.40
2019-01-13T18:01:41.737Z,7.30
2019-01-13T18:04:46.683Z,7.30
2019-01-13T18:07:51.786Z,7.30
2019-01-13T18:10:56.901Z,7.30
2019-01-13T18:14:02.511Z,7.20
2019-01-13T18:17:07.497Z,7.20
2019-01-13T18:20:15.747Z,7.30
2019-01-13T18:23:20.857Z,7.20
2019-01-13T18:26:25.986Z,7.30
2019-01-13T18:29:31.287Z,7.30
2019-01-13T18:32:36.247Z,7.20
2019-01-13T18:35:41.384Z,7.20
2019-01-13T18:38:46.538Z,7.20
2019-01-13T18:41:51.841Z,7.20
2019-01-13T18:44:56.953Z,7.30
2019-01-13T18:48:02.117Z,7.30
2019-01-13T18:51:07.039Z,7.20
2019-01-13T18:54:12.140Z,7.30
2019-01-13T18:57:17.509Z,7.30
2019-01-13T19:00:23.195Z,7.30
2019-01-13T19:03:28.429Z,7.30
2019-01-13T19:06:34.029Z,7.20
2019-01-13T19:09:39.085Z,7.20
2019-01-13T19:12:44.384Z,7.10
2019-01-13T19:15:50.785Z,7.10
2019-01-13T19:18:56.359Z,7.10
2019-01-13T19:22:01.465Z,7.10
2019-01-13T19:25:17.203Z,7.10
2019-01-13T19:28:22.320Z,7.10
2019-01-13T19:31:27.329Z,7.10
2019-01-13T19:34:32.780Z,7.00
2019-01-13T19:37:37.729Z,7.00
2019-01-13T19:40:44.007Z,6.80
2019-01-13T19:43:49.420Z,6.80
2019-01-13T19:46:54.818Z,6.70
2019-01-13T19:49:59.871Z,6.80
2019-01-13T19:53:08.948Z,6.70
2019-01-13T19:56:14.027Z,6.80
2019-01-13T19:59:19.228Z,6.80
2019-01-13T20:02:24.211Z,6.90
2019-01-13T20:05:29.949Z,6.90
2019-01-13T20:08:35.146Z,6.90
2019-01-13T20:11:40.406Z,6.80
2019-01-13T20:14:45.530Z,6.80
2019-01-13T20:17:50.534Z,6.70
2019-01-13T20:20:55.746Z,6.60
2019-01-13T20:24:01.179Z,6.50
2019-01-13T20:27:06.370Z,6.50
2019-01-13T20:30:14.694Z,6.50
2019-01-13T20:33:19.974Z,6.40
2019-01-13T20:36:25.111Z,6.40
2019-01-13T20:39:30.178Z,6.40
2019-01-13T20:42:35.225Z,6.40
2019-01-13T20:45:42.161Z,6.30
2019-01-13T20:48:47.399Z,6.30
2019-01-13T20:51:52.464Z,6.20
2019-01-13T20:54:57.466Z,6.20
2019-01-13T20:58:02.618Z,6.20
2019-01-13T21:01:07.692Z,6.20
2019-01-13T21:04:12.815Z,6.10
2019-01-13T21:07:17.993Z,6.10
2019-01-13T21:10:23.296Z,6.10
2019-01-13T21:13:28.423Z,6.10
2019-01-13T21:16:33.636Z,6.00
2019-01-13T21:19:38.663Z,5.90
2019-01-13T21:22:43.564Z,5.90
2019-01-13T21:25:48.850Z,5.90
2019-01-13T21:28:53.957Z,5.80
2019-01-13T21:31:59.322Z,5.70
2019-01-13T21:35:04.761Z,5.70
2019-01-13T21:38:10.243Z,5.70
2019-01-13T21:41:19.336Z,5.70
2019-01-13T21:44:24.484Z,5.70
2019-01-13T21:47:30.251Z,5.60
2019-01-13T21:50:35.922Z,5.60
2019-01-13T21:53:46.669Z,5.60
2019-01-13T21:56:53.729Z,5.70
2019-01-13T21:59:59.501Z,5.70
2019-01-13T22:03:04.888Z,5.70
2019-01-13T22:06:10.700Z,5.70
2019-01-13T22:09:16.585Z,5.70
2019-01-13T22:12:21.549Z,5.70
2019-01-13T22:15:27.748Z,5.50
2019-01-13T22:18:34.290Z,5.50
2019-01-13T22:21:39.471Z,5.60
2019-01-13T22:24:44.440Z,5.50
2019-01-13T22:27:49.418Z,5.50
2019-01-13T22:30:54.318Z,5.50
2019-01-13T22:33:59.267Z,5.40
2019-01-13T22:37:04.757Z,5.40
2019-01-13T22:40:12.310Z,5.40
2019-01-13T22:43:17.309Z,5.40
2019-01-13T22:46:22.750Z,5.30
2019-01-13T22:49:27.890Z,5.40
2019-01-13T22:52:32.860Z,5.40
2019-01-13T22:55:37.756Z,5.40
2019-01-13T22:58:42.722Z,5.50
2019-01-13T23:02:08.096Z,5.50
2019-01-13T23:05:13.376Z,5.50
2019-01-13T23:08:18.422Z,5.50
2019-01-13T23:11:23.363Z,5.50
2019-01-13T23:14:28.355Z,5.50
2019-01-13T23:17:33.509Z,5.50
2019-01-13T23:20:38.590Z,5.50
2019-01-13T23:23:43.703Z,5.50
2019-01-13T23:26:48.757Z,5.50
2019-01-13T23:29:53.725Z,5.40
2019-01-13T23:32:58.664Z,5.40
2019-01-13T23:36:03.725Z,5.40
2019-01-13T23:39:09.549Z,5.40
2019-01-13T23:42:14.577Z,5.50
2019-01-13T23:45:19.830Z,5.40
2019-01-13T23:48:24.832Z,5.40
2019-01-13T23:51:29.996Z,5.40
2019-01-13T23:54:35.162Z,5.40
2019-01-13T23:57:40.093Z,5.40
